Thor, South Carolina
Current Conditions -  °F | °C
As of 11:56 PM on Monday 26 Jan 2015 (Local Time) from KCAE Reporting Station
Broken Clouds Broken Clouds  
Wind Chill: 39°   Ceiling: 15000
Heat Index: 44°   Visibility: 10mi
Dew Point: 24°   Wind: 9mph
Humidity: 45%   Direction: 290°WNW
Pressure: 29.81"   Gusts: NA
Location:  33.7682°N, 81.2599°W
Report Text: KCAE 270456Z 29008KT 10SM BKN150 07/M04 A2981 RMK AO2 SLP093 T00671044 401500028
Loading
Personal Weather Stations






























Interactive Weather Map New forecast layout! Learn more

10-Day Weather Forecast

Advertisements
Track Severe Weather on mobile